NKS1793 KSAT-KFLL
Flight info
| Callsign | NKS1793 |
|---|---|
| Flight time | 2h 6m |
| Altitude | 37000 |
| Route | SNIDR2 MOLLR Q56 PEKON LEV Y290 OCHHO VNECK TEEKY4 |
| Aircraft | A320/M-SDE3FGHIRWY/LB1 |
Departure
| Time | 2026-05-04 13:36 |
|---|---|
| Airport | San Antonio International Airport (KSAT) |
Arrival
| Time | 2026-05-04 15:43 |
|---|---|
| Airport | Fort Lauderdale Hollywood International Airport (KFLL) |
| Time | Latitude | Longitude | Altitude | Speed | Heading |
|---|---|---|---|---|---|
| 2026-05-04 13:01 | 29.52675 | -98.47018 | 803 ft | 0 kts | 311° |
| 2026-05-04 13:25 | 29.52671 | -98.47013 | 841 ft | 3 kts | 311° |
| 2026-05-04 13:25 | 29.52658 | -98.46996 | 797 ft | 3 kts | 315° |
| 2026-05-04 13:26 | 29.52643 | -98.46980 | 797 ft | 3 kts | 323° |
| 2026-05-04 13:26 | 29.52626 | -98.46968 | 797 ft | 3 kts | 343° |
| 2026-05-04 13:26 | 29.52610 | -98.46966 | 797 ft | 3 kts | 32° |
| 2026-05-04 13:26 | 29.52606 | -98.46969 | 797 ft | 0 kts | 40° |
| 2026-05-04 13:28 | 29.52611 | -98.46964 | 797 ft | 2 kts | 41° |
| 2026-05-04 13:28 | 29.52623 | -98.46951 | 797 ft | 3 kts | 41° |
| 2026-05-04 13:29 | 29.52643 | -98.46931 | 797 ft | 5 kts | 42° |
| 2026-05-04 13:29 | 29.52670 | -98.46903 | 797 ft | 6 kts | 43° |
| 2026-05-04 13:29 | 29.52704 | -98.46868 | 797 ft | 7 kts | 32° |
| 2026-05-04 13:29 | 29.52750 | -98.46883 | 797 ft | 8 kts | 320° |
| 2026-05-04 13:30 | 29.52793 | -98.46936 | 797 ft | 10 kts | 311° |
| 2026-05-04 13:30 | 29.52846 | -98.47006 | 797 ft | 13 kts | 311° |
| 2026-05-04 13:30 | 29.52909 | -98.47086 | 797 ft | 14 kts | 312° |
| 2026-05-04 13:30 | 29.52979 | -98.47176 | 797 ft | 16 kts | 311° |
| 2026-05-04 13:31 | 29.53055 | -98.47274 | 797 ft | 16 kts | 311° |
| 2026-05-04 13:31 | 29.53117 | -98.47370 | 796 ft | 14 kts | 303° |
| 2026-05-04 13:31 | 29.53173 | -98.47466 | 798 ft | 15 kts | 307° |
| 2026-05-04 13:31 | 29.53245 | -98.47563 | 798 ft | 17 kts | 312° |
| 2026-05-04 13:32 | 29.53323 | -98.47662 | 798 ft | 17 kts | 312° |
| 2026-05-04 13:32 | 29.53402 | -98.47761 | 798 ft | 17 kts | 311° |
| 2026-05-04 13:32 | 29.53481 | -98.47862 | 798 ft | 17 kts | 312° |
| 2026-05-04 13:32 | 29.53562 | -98.47967 | 798 ft | 18 kts | 311° |
| 2026-05-04 13:33 | 29.53647 | -98.48076 | 798 ft | 19 kts | 312° |
| 2026-05-04 13:33 | 29.53739 | -98.48193 | 798 ft | 21 kts | 311° |
| 2026-05-04 13:33 | 29.53837 | -98.48320 | 798 ft | 22 kts | 311° |
| 2026-05-04 13:33 | 29.53941 | -98.48457 | 798 ft | 24 kts | 311° |
| 2026-05-04 13:34 | 29.54046 | -98.48593 | 798 ft | 20 kts | 312° |
| 2026-05-04 13:34 | 29.54124 | -98.48685 | 798 ft | 12 kts | 329° |
| 2026-05-04 13:34 | 29.54183 | -98.48638 | 798 ft | 12 kts | 56° |
| 2026-05-04 13:34 | 29.54247 | -98.48567 | 798 ft | 12 kts | 42° |
| 2026-05-04 13:35 | 29.54246 | -98.48517 | 798 ft | 7 kts | 130° |
| 2026-05-04 13:35 | 29.53785 | -98.47926 | 798 ft | 108 kts | 131° |
| 2026-05-04 13:35 | 29.53177 | -98.47144 | 801 ft | 152 kts | 131° |
| 2026-05-04 13:36 | 29.52461 | -98.46208 | 1176 ft | 159 kts | 132° |
| 2026-05-04 13:36 | 29.51721 | -98.45209 | 1596 ft | 175 kts | 133° |
| 2026-05-04 13:36 | 29.50877 | -98.44073 | 1928 ft | 197 kts | 135° |
| 2026-05-04 13:36 | 29.49945 | -98.42835 | 2370 ft | 213 kts | 135° |
| 2026-05-04 13:37 | 29.48956 | -98.41478 | 2826 ft | 231 kts | 130° |
| 2026-05-04 13:37 | 29.48336 | -98.39692 | 3384 ft | 256 kts | 100° |
| 2026-05-04 13:37 | 29.48598 | -98.37606 | 3967 ft | 277 kts | 69° |
| 2026-05-04 13:37 | 29.49276 | -98.36296 | 4414 ft | 288 kts | 52° |
| 2026-05-04 13:38 | 29.51300 | -98.34318 | 5524 ft | 290 kts | 36° |
| 2026-05-04 13:38 | 29.52931 | -98.32951 | 6378 ft | 291 kts | 35° |
| 2026-05-04 13:38 | 29.54574 | -98.31582 | 7126 ft | 292 kts | 34° |
| 2026-05-04 13:38 | 29.56220 | -98.30211 | 7882 ft | 293 kts | 34° |
| 2026-05-04 13:39 | 29.57869 | -98.28835 | 8674 ft | 294 kts | 33° |
| 2026-05-04 13:39 | 29.59531 | -98.27446 | 9433 ft | 296 kts | 33° |
| 2026-05-04 13:39 | 29.61153 | -98.25968 | 10126 ft | 301 kts | 42° |
| 2026-05-04 13:39 | 29.62434 | -98.24032 | 10751 ft | 310 kts | 58° |
| 2026-05-04 13:40 | 29.63234 | -98.21634 | 10958 ft | 336 kts | 77° |
| 2026-05-04 13:40 | 29.63521 | -98.18885 | 11142 ft | 356 kts | 83° |
| 2026-05-04 13:40 | 29.63765 | -98.16016 | 11619 ft | 363 kts | 83° |
| 2026-05-04 13:40 | 29.64015 | -98.13106 | 12182 ft | 368 kts | 82° |
| 2026-05-04 13:41 | 29.64277 | -98.10160 | 12751 ft | 373 kts | 82° |
| 2026-05-04 13:41 | 29.64550 | -98.07181 | 13350 ft | 378 kts | 82° |
| 2026-05-04 13:41 | 29.64830 | -98.04160 | 13937 ft | 382 kts | 82° |
| 2026-05-04 13:42 | 29.65121 | -97.97975 | 14992 ft | 393 kts | 87° |
| 2026-05-04 13:42 | 29.65169 | -97.94818 | 15459 ft | 397 kts | 87° |
| 2026-05-04 13:42 | 29.65215 | -97.91625 | 15948 ft | 402 kts | 87° |
| 2026-05-04 13:42 | 29.65263 | -97.88399 | 16441 ft | 406 kts | 87° |
| 2026-05-04 13:43 | 29.65312 | -97.85139 | 16915 ft | 411 kts | 87° |
| 2026-05-04 13:43 | 29.65359 | -97.81836 | 17403 ft | 415 kts | 87° |
| 2026-05-04 13:43 | 29.65401 | -97.78505 | 17882 ft | 419 kts | 88° |
| 2026-05-04 13:43 | 29.65439 | -97.75136 | 18363 ft | 424 kts | 88° |
| 2026-05-04 13:44 | 29.65475 | -97.71731 | 18789 ft | 428 kts | 87° |
| 2026-05-04 13:44 | 29.65510 | -97.68344 | 19221 ft | 432 kts | 87° |
| 2026-05-04 13:44 | 29.65543 | -97.64877 | 19669 ft | 435 kts | 87° |
| 2026-05-04 13:44 | 29.65572 | -97.61383 | 20117 ft | 439 kts | 87° |
| 2026-05-04 13:45 | 29.65604 | -97.57850 | 20573 ft | 443 kts | 87° |
| 2026-05-04 13:45 | 29.65639 | -97.54295 | 21011 ft | 447 kts | 86° |
| 2026-05-04 13:45 | 29.65674 | -97.50706 | 21440 ft | 451 kts | 86° |
| 2026-05-04 13:45 | 29.65707 | -97.47086 | 21869 ft | 454 kts | 86° |
| 2026-05-04 13:46 | 29.65742 | -97.43444 | 22298 ft | 458 kts | 86° |
| 2026-05-04 13:46 | 29.65775 | -97.39766 | 22720 ft | 462 kts | 86° |
| 2026-05-04 13:46 | 29.65805 | -97.36061 | 23136 ft | 465 kts | 86° |
| 2026-05-04 13:46 | 29.65832 | -97.32326 | 23547 ft | 469 kts | 86° |
| 2026-05-04 13:47 | 29.65858 | -97.28567 | 23879 ft | 472 kts | 86° |
| 2026-05-04 13:47 | 29.65888 | -97.24773 | 24214 ft | 475 kts | 85° |
| 2026-05-04 13:47 | 29.65919 | -97.20963 | 24549 ft | 478 kts | 85° |
| 2026-05-04 13:47 | 29.65945 | -97.17123 | 24883 ft | 481 kts | 85° |
| 2026-05-04 13:48 | 29.65968 | -97.13265 | 25199 ft | 484 kts | 85° |
| 2026-05-04 13:48 | 29.65988 | -97.09384 | 25524 ft | 487 kts | 85° |
| 2026-05-04 13:48 | 29.66011 | -97.05480 | 25844 ft | 490 kts | 85° |
| 2026-05-04 13:48 | 29.66034 | -97.01555 | 26162 ft | 493 kts | 85° |
| 2026-05-04 13:49 | 29.66052 | -96.97605 | 26450 ft | 495 kts | 85° |
| 2026-05-04 13:49 | 29.66072 | -96.93632 | 26755 ft | 498 kts | 84° |
| 2026-05-04 13:49 | 29.66095 | -96.89637 | 27060 ft | 501 kts | 84° |
| 2026-05-04 13:49 | 29.66118 | -96.85632 | 27366 ft | 503 kts | 84° |
| 2026-05-04 13:50 | 29.66137 | -96.81593 | 27682 ft | 506 kts | 84° |
| 2026-05-04 13:50 | 29.66155 | -96.77545 | 28011 ft | 508 kts | 84° |
| 2026-05-04 13:50 | 29.66170 | -96.73475 | 28328 ft | 510 kts | 84° |
| 2026-05-04 13:50 | 29.66186 | -96.69382 | 28632 ft | 513 kts | 84° |
| 2026-05-04 13:51 | 29.66201 | -96.65271 | 28909 ft | 516 kts | 83° |
| 2026-05-04 13:51 | 29.66213 | -96.61142 | 29183 ft | 518 kts | 83° |
| 2026-05-04 13:51 | 29.66221 | -96.56988 | 29502 ft | 520 kts | 83° |
| 2026-05-04 13:51 | 29.66228 | -96.52821 | 29924 ft | 521 kts | 83° |
| 2026-05-04 13:52 | 29.66230 | -96.44493 | 30717 ft | 521 kts | 83° |
| 2026-05-04 13:52 | 29.66225 | -96.40334 | 31073 ft | 521 kts | 83° |
| 2026-05-04 13:52 | 29.66220 | -96.36221 | 31402 ft | 521 kts | 83° |
| 2026-05-04 13:53 | 29.66211 | -96.32054 | 31726 ft | 522 kts | 84° |
| 2026-05-04 13:53 | 29.66200 | -96.27882 | 32056 ft | 522 kts | 84° |
| 2026-05-04 13:53 | 29.66188 | -96.23712 | 32386 ft | 522 kts | 84° |
| 2026-05-04 13:54 | 29.66159 | -96.15357 | 33024 ft | 523 kts | 84° |
| 2026-05-04 13:54 | 29.66143 | -96.11173 | 33355 ft | 523 kts | 84° |
| 2026-05-04 13:54 | 29.66116 | -96.02793 | 34015 ft | 525 kts | 83° |
| 2026-05-04 13:55 | 29.66103 | -95.98603 | 34292 ft | 525 kts | 83° |
| 2026-05-04 13:55 | 29.66065 | -95.90212 | 34889 ft | 524 kts | 83° |
| 2026-05-04 13:55 | 29.66039 | -95.86014 | 35190 ft | 523 kts | 83° |
| 2026-05-04 13:56 | 29.66012 | -95.81847 | 35462 ft | 521 kts | 83° |
| 2026-05-04 13:56 | 29.65985 | -95.77686 | 35758 ft | 520 kts | 83° |
| 2026-05-04 13:56 | 29.65929 | -95.69387 | 36345 ft | 518 kts | 83° |
| 2026-05-04 13:57 | 29.65892 | -95.65250 | 36613 ft | 517 kts | 83° |
| 2026-05-04 13:57 | 29.65852 | -95.61131 | 36867 ft | 516 kts | 83° |
| 2026-05-04 13:58 | 29.65734 | -95.48708 | 37075 ft | 521 kts | 83° |
| 2026-05-04 13:58 | 29.65651 | -95.37597 | 37082 ft | 522 kts | 83° |
| 2026-05-04 13:59 | 29.65584 | -95.29249 | 37078 ft | 523 kts | 83° |
| 2026-05-04 14:00 | 29.65489 | -95.16713 | 37071 ft | 523 kts | 82° |
| 2026-05-04 14:00 | 29.65415 | -95.04173 | 37081 ft | 523 kts | 82° |
| 2026-05-04 14:01 | 29.65368 | -94.95809 | 37089 ft | 524 kts | 83° |
| 2026-05-04 14:02 | 29.65273 | -94.83257 | 37104 ft | 523 kts | 82° |
| 2026-05-04 14:02 | 29.65194 | -94.74885 | 37105 ft | 523 kts | 82° |
| 2026-05-04 14:03 | 29.65116 | -94.66523 | 37105 ft | 523 kts | 82° |
| 2026-05-04 14:03 | 29.65034 | -94.58166 | 37106 ft | 523 kts | 82° |
| 2026-05-04 14:04 | 29.64898 | -94.45676 | 37090 ft | 519 kts | 82° |
| 2026-05-04 14:04 | 29.64805 | -94.37375 | 37098 ft | 519 kts | 82° |
| 2026-05-04 14:05 | 29.64653 | -94.24913 | 37108 ft | 520 kts | 82° |
| 2026-05-04 14:06 | 29.64550 | -94.16584 | 37095 ft | 525 kts | 82° |
| 2026-05-04 14:06 | 29.64446 | -94.08115 | 37099 ft | 534 kts | 82° |
| 2026-05-04 14:07 | 29.64324 | -93.99521 | 37099 ft | 541 kts | 82° |
| 2026-05-04 14:07 | 29.64184 | -93.90832 | 37106 ft | 546 kts | 82° |
| 2026-05-04 14:08 | 29.64045 | -93.82087 | 37109 ft | 548 kts | 82° |
| 2026-05-04 14:08 | 29.63897 | -93.73386 | 37121 ft | 548 kts | 82° |
| 2026-05-04 14:09 | 29.63673 | -93.60241 | 37125 ft | 548 kts | 82° |
| 2026-05-04 14:10 | 29.63434 | -93.47085 | 37135 ft | 549 kts | 82° |
| 2026-05-04 14:10 | 29.63266 | -93.38303 | 37142 ft | 550 kts | 82° |
| 2026-05-04 14:11 | 29.63099 | -93.29516 | 37145 ft | 550 kts | 82° |
| 2026-05-04 14:11 | 29.62828 | -93.16333 | 37146 ft | 550 kts | 82° |
| 2026-05-04 14:12 | 29.62636 | -93.07539 | 37148 ft | 550 kts | 83° |
| 2026-05-04 14:13 | 29.62340 | -92.94361 | 37154 ft | 551 kts | 84° |
| 2026-05-04 14:13 | 29.61298 | -92.85538 | 37109 ft | 559 kts | 92° |
| 2026-05-04 14:14 | 29.59985 | -92.76733 | 37120 ft | 559 kts | 92° |
| 2026-05-04 14:14 | 29.58004 | -92.63530 | 37120 ft | 558 kts | 93° |
| 2026-05-04 14:15 | 29.55377 | -92.46057 | 37125 ft | 556 kts | 93° |
| 2026-05-04 14:16 | 29.53387 | -92.32904 | 37136 ft | 557 kts | 93° |
| 2026-05-04 14:17 | 29.51374 | -92.19756 | 37140 ft | 556 kts | 94° |
| 2026-05-04 14:18 | 29.49350 | -92.06648 | 37113 ft | 554 kts | 94° |
| 2026-05-04 14:19 | 29.46666 | -91.89283 | 37139 ft | 552 kts | 95° |
| 2026-05-04 14:19 | 29.45323 | -91.80629 | 37126 ft | 550 kts | 95° |
| 2026-05-04 14:20 | 29.43964 | -91.71991 | 37130 ft | 550 kts | 95° |
| 2026-05-04 14:20 | 29.42591 | -91.63347 | 37134 ft | 550 kts | 95° |
| 2026-05-04 14:21 | 29.40542 | -91.50395 | 37140 ft | 550 kts | 96° |
| 2026-05-04 14:21 | 29.39184 | -91.41854 | 37133 ft | 548 kts | 96° |
| 2026-05-04 14:22 | 29.37801 | -91.33214 | 37138 ft | 548 kts | 96° |
| 2026-05-04 14:22 | 29.36430 | -91.24675 | 37145 ft | 548 kts | 96° |
| 2026-05-04 14:23 | 29.34343 | -91.11774 | 37174 ft | 549 kts | 97° |
| 2026-05-04 14:24 | 29.32954 | -91.03178 | 37171 ft | 548 kts | 97° |
| 2026-05-04 14:24 | 29.31556 | -90.94598 | 37166 ft | 547 kts | 97° |
| 2026-05-04 14:25 | 29.30152 | -90.86032 | 37161 ft | 547 kts | 97° |
| 2026-05-04 14:25 | 29.28039 | -90.73193 | 37166 ft | 547 kts | 98° |
| 2026-05-04 14:26 | 29.26626 | -90.64643 | 37167 ft | 546 kts | 98° |
| 2026-05-04 14:26 | 29.25205 | -90.56098 | 37142 ft | 545 kts | 98° |
| 2026-05-04 14:27 | 29.23792 | -90.47592 | 37146 ft | 544 kts | 98° |
| 2026-05-04 14:27 | 29.22372 | -90.39080 | 37144 ft | 545 kts | 98° |
| 2026-05-04 14:28 | 29.20935 | -90.30564 | 37145 ft | 544 kts | 98° |
| 2026-05-04 14:28 | 29.19500 | -90.22067 | 37147 ft | 543 kts | 98° |
| 2026-05-04 14:29 | 29.15656 | -90.05357 | 37153 ft | 546 kts | 112° |
| 2026-05-04 14:30 | 29.12658 | -89.97355 | 37159 ft | 547 kts | 113° |
| 2026-05-04 14:31 | 29.08156 | -89.85367 | 37158 ft | 547 kts | 113° |
| 2026-05-04 14:32 | 29.02175 | -89.69429 | 37162 ft | 546 kts | 113° |
| 2026-05-04 14:32 | 28.99164 | -89.61463 | 37161 ft | 546 kts | 113° |
| 2026-05-04 14:33 | 28.96156 | -89.53489 | 37163 ft | 546 kts | 113° |
| 2026-05-04 14:33 | 28.93133 | -89.45519 | 37146 ft | 547 kts | 113° |
| 2026-05-04 14:34 | 28.90104 | -89.37556 | 37166 ft | 547 kts | 113° |
| 2026-05-04 14:34 | 28.87075 | -89.29581 | 37157 ft | 548 kts | 113° |
| 2026-05-04 14:35 | 28.84041 | -89.21605 | 37168 ft | 547 kts | 114° |
| 2026-05-04 14:35 | 28.81003 | -89.13651 | 37162 ft | 547 kts | 114° |
| 2026-05-04 14:36 | 28.77956 | -89.05696 | 37167 ft | 547 kts | 114° |
| 2026-05-04 14:36 | 28.74900 | -88.97743 | 37166 ft | 547 kts | 114° |
| 2026-05-04 14:37 | 28.71847 | -88.89794 | 37161 ft | 547 kts | 114° |
| 2026-05-04 14:37 | 28.68794 | -88.81857 | 37165 ft | 547 kts | 114° |
| 2026-05-04 14:38 | 28.65724 | -88.73918 | 37127 ft | 548 kts | 114° |
| 2026-05-04 14:38 | 28.62648 | -88.65974 | 37145 ft | 547 kts | 114° |
| 2026-05-04 14:39 | 28.59579 | -88.58047 | 37156 ft | 547 kts | 114° |
| 2026-05-04 14:39 | 28.56527 | -88.50185 | 37159 ft | 547 kts | 114° |
| 2026-05-04 14:40 | 28.51897 | -88.38308 | 37163 ft | 547 kts | 114° |
| 2026-05-04 14:40 | 28.48814 | -88.30419 | 37160 ft | 547 kts | 114° |
| 2026-05-04 14:41 | 28.46241 | -88.23854 | 37163 ft | 546 kts | 114° |
| 2026-05-04 14:42 | 28.40061 | -88.08084 | 37153 ft | 547 kts | 114° |
| 2026-05-04 14:42 | 28.37252 | -88.00066 | 37161 ft | 546 kts | 108° |
| 2026-05-04 14:43 | 28.34901 | -87.91869 | 37130 ft | 546 kts | 108° |
| 2026-05-04 14:43 | 28.32546 | -87.83670 | 37157 ft | 546 kts | 108° |
| 2026-05-04 14:44 | 28.30179 | -87.75491 | 37164 ft | 545 kts | 108° |
| 2026-05-04 14:44 | 28.27805 | -87.67325 | 37166 ft | 545 kts | 108° |
| 2026-05-04 14:45 | 28.25433 | -87.59183 | 37124 ft | 543 kts | 108° |
| 2026-05-04 14:45 | 28.23061 | -87.51066 | 37135 ft | 542 kts | 108° |
| 2026-05-04 14:46 | 28.20689 | -87.42943 | 37139 ft | 542 kts | 108° |
| 2026-05-04 14:46 | 28.18319 | -87.34834 | 37138 ft | 542 kts | 108° |
| 2026-05-04 14:47 | 28.15936 | -87.26732 | 37136 ft | 542 kts | 109° |
| 2026-05-04 14:47 | 28.13548 | -87.18628 | 37137 ft | 542 kts | 109° |
| 2026-05-04 14:48 | 28.11154 | -87.10538 | 37135 ft | 542 kts | 109° |
| 2026-05-04 14:48 | 28.08775 | -87.02485 | 37136 ft | 542 kts | 109° |
| 2026-05-04 14:49 | 28.06373 | -86.94408 | 37145 ft | 541 kts | 109° |
| 2026-05-04 14:49 | 28.03964 | -86.86312 | 37140 ft | 542 kts | 109° |
| 2026-05-04 14:50 | 28.01556 | -86.78204 | 37117 ft | 543 kts | 109° |
| 2026-05-04 14:50 | 27.99158 | -86.70102 | 37129 ft | 542 kts | 109° |
| 2026-05-04 14:51 | 27.96823 | -86.61994 | 37132 ft | 541 kts | 108° |
| 2026-05-04 14:51 | 27.94505 | -86.53896 | 37133 ft | 542 kts | 109° |
| 2026-05-04 14:52 | 27.92159 | -86.45790 | 37128 ft | 542 kts | 109° |
| 2026-05-04 14:52 | 27.89791 | -86.37691 | 37128 ft | 543 kts | 109° |
| 2026-05-04 14:53 | 27.87415 | -86.29590 | 37133 ft | 543 kts | 109° |
| 2026-05-04 14:53 | 27.85053 | -86.21542 | 37142 ft | 544 kts | 109° |
| 2026-05-04 14:54 | 27.82674 | -86.13432 | 37148 ft | 544 kts | 110° |
| 2026-05-04 14:54 | 27.80285 | -86.05317 | 37152 ft | 544 kts | 110° |
| 2026-05-04 14:55 | 27.77890 | -85.97198 | 37147 ft | 545 kts | 110° |
| 2026-05-04 14:55 | 27.75495 | -85.89081 | 37148 ft | 545 kts | 110° |
| 2026-05-04 14:56 | 27.73087 | -85.80972 | 37148 ft | 545 kts | 110° |
| 2026-05-04 14:56 | 27.70683 | -85.72864 | 37149 ft | 545 kts | 110° |
| 2026-05-04 14:57 | 27.68270 | -85.64751 | 37146 ft | 545 kts | 110° |
| 2026-05-04 14:57 | 27.65846 | -85.56654 | 37144 ft | 545 kts | 110° |
| 2026-05-04 14:58 | 27.63423 | -85.48564 | 37146 ft | 545 kts | 110° |
| 2026-05-04 14:58 | 27.60997 | -85.40469 | 37143 ft | 545 kts | 110° |
| 2026-05-04 14:59 | 27.58805 | -85.32301 | 37138 ft | 546 kts | 102° |
| 2026-05-04 15:00 | 27.56636 | -85.19767 | 37149 ft | 544 kts | 102° |
| 2026-05-04 15:00 | 27.55184 | -85.11412 | 37145 ft | 543 kts | 102° |
| 2026-05-04 15:01 | 27.52999 | -84.98905 | 37143 ft | 541 kts | 102° |
| 2026-05-04 15:01 | 27.51532 | -84.90584 | 37139 ft | 541 kts | 102° |
| 2026-05-04 15:02 | 27.50057 | -84.82279 | 37137 ft | 541 kts | 102° |
| 2026-05-04 15:02 | 27.48581 | -84.73973 | 37137 ft | 541 kts | 102° |
| 2026-05-04 15:03 | 27.47108 | -84.65673 | 37126 ft | 541 kts | 102° |
| 2026-05-04 15:03 | 27.45624 | -84.57369 | 37128 ft | 541 kts | 102° |
| 2026-05-04 15:04 | 27.44128 | -84.49070 | 37133 ft | 541 kts | 102° |
| 2026-05-04 15:04 | 27.42636 | -84.40822 | 37135 ft | 541 kts | 101° |
| 2026-05-04 15:05 | 27.42047 | -84.32391 | 37135 ft | 541 kts | 91° |
| 2026-05-04 15:05 | 27.41833 | -84.23921 | 37134 ft | 541 kts | 91° |
| 2026-05-04 15:06 | 27.41595 | -84.15452 | 37136 ft | 542 kts | 91° |
| 2026-05-04 15:07 | 27.41224 | -84.02719 | 37136 ft | 542 kts | 91° |
| 2026-05-04 15:07 | 27.40974 | -83.94233 | 37138 ft | 542 kts | 91° |
| 2026-05-04 15:08 | 27.40721 | -83.85743 | 37140 ft | 543 kts | 91° |
| 2026-05-04 15:08 | 27.40467 | -83.77239 | 37137 ft | 543 kts | 91° |
| 2026-05-04 15:09 | 27.40201 | -83.68743 | 37134 ft | 544 kts | 91° |
| 2026-05-04 15:09 | 27.39931 | -83.60294 | 37135 ft | 544 kts | 92° |
| 2026-05-04 15:10 | 27.39505 | -83.47480 | 37135 ft | 544 kts | 92° |
| 2026-05-04 15:11 | 27.39088 | -83.34776 | 37133 ft | 544 kts | 92° |
| 2026-05-04 15:11 | 27.38945 | -83.30512 | 36775 ft | 543 kts | 92° |
| 2026-05-04 15:11 | 27.38798 | -83.26292 | 36521 ft | 535 kts | 92° |
| 2026-05-04 15:11 | 27.38653 | -83.22146 | 36268 ft | 526 kts | 91° |
| 2026-05-04 15:12 | 27.38511 | -83.18061 | 36023 ft | 519 kts | 91° |
| 2026-05-04 15:12 | 27.38272 | -83.14025 | 35770 ft | 516 kts | 99° |
| 2026-05-04 15:12 | 27.37477 | -83.10102 | 35530 ft | 512 kts | 108° |
| 2026-05-04 15:12 | 27.36462 | -83.06269 | 35292 ft | 510 kts | 108° |
| 2026-05-04 15:13 | 27.35445 | -83.02454 | 35055 ft | 509 kts | 108° |
| 2026-05-04 15:13 | 27.34426 | -82.98649 | 34815 ft | 507 kts | 108° |
| 2026-05-04 15:13 | 27.33408 | -82.94853 | 34580 ft | 506 kts | 108° |
| 2026-05-04 15:13 | 27.32396 | -82.91075 | 34351 ft | 504 kts | 108° |
| 2026-05-04 15:14 | 27.31389 | -82.87308 | 34118 ft | 503 kts | 107° |
| 2026-05-04 15:14 | 27.30388 | -82.83555 | 33778 ft | 498 kts | 107° |
| 2026-05-04 15:14 | 27.29388 | -82.79838 | 33282 ft | 495 kts | 109° |
| 2026-05-04 15:14 | 27.28118 | -82.76318 | 32855 ft | 488 kts | 119° |
| 2026-05-04 15:15 | 27.26601 | -82.72914 | 32611 ft | 487 kts | 119° |
| 2026-05-04 15:15 | 27.25092 | -82.69509 | 32360 ft | 486 kts | 119° |
| 2026-05-04 15:15 | 27.23595 | -82.66111 | 32112 ft | 484 kts | 119° |
| 2026-05-04 15:16 | 27.20624 | -82.59346 | 31621 ft | 481 kts | 119° |
| 2026-05-04 15:16 | 27.19145 | -82.55984 | 31377 ft | 479 kts | 119° |
| 2026-05-04 15:16 | 27.16190 | -82.49301 | 30888 ft | 476 kts | 119° |
| 2026-05-04 15:17 | 27.14714 | -82.45981 | 30647 ft | 474 kts | 119° |
| 2026-05-04 15:17 | 27.11776 | -82.39378 | 30201 ft | 471 kts | 120° |
| 2026-05-04 15:17 | 27.10320 | -82.36098 | 29927 ft | 469 kts | 120° |
| 2026-05-04 15:18 | 27.08869 | -82.32825 | 29651 ft | 467 kts | 119° |
| 2026-05-04 15:18 | 27.07426 | -82.29569 | 29383 ft | 464 kts | 120° |
| 2026-05-04 15:18 | 27.05987 | -82.26338 | 29116 ft | 462 kts | 120° |
| 2026-05-04 15:19 | 27.03123 | -82.19925 | 28602 ft | 457 kts | 120° |
| 2026-05-04 15:19 | 27.01708 | -82.16749 | 28340 ft | 454 kts | 120° |
| 2026-05-04 15:19 | 26.98895 | -82.10451 | 27835 ft | 449 kts | 120° |
| 2026-05-04 15:20 | 26.97499 | -82.07333 | 27582 ft | 446 kts | 121° |
| 2026-05-04 15:20 | 26.95903 | -82.04380 | 27328 ft | 440 kts | 130° |
| 2026-05-04 15:20 | 26.93991 | -82.01745 | 27055 ft | 432 kts | 139° |
| 2026-05-04 15:20 | 26.91923 | -81.99312 | 26812 ft | 430 kts | 139° |
| 2026-05-04 15:21 | 26.89869 | -81.96895 | 26570 ft | 427 kts | 139° |
| 2026-05-04 15:21 | 26.87823 | -81.94486 | 26329 ft | 425 kts | 139° |
| 2026-05-04 15:21 | 26.83777 | -81.89703 | 25906 ft | 419 kts | 138° |
| 2026-05-04 15:22 | 26.81775 | -81.87332 | 26037 ft | 420 kts | 138° |
| 2026-05-04 15:22 | 26.79761 | -81.84950 | 26049 ft | 421 kts | 138° |
| 2026-05-04 15:22 | 26.75719 | -81.80193 | 25921 ft | 422 kts | 139° |
| 2026-05-04 15:23 | 26.73696 | -81.77834 | 25588 ft | 420 kts | 139° |
| 2026-05-04 15:23 | 26.71666 | -81.75479 | 25148 ft | 420 kts | 139° |
| 2026-05-04 15:23 | 26.69651 | -81.73143 | 24866 ft | 415 kts | 139° |
| 2026-05-04 15:23 | 26.67654 | -81.70828 | 24508 ft | 413 kts | 139° |
| 2026-05-04 15:24 | 26.64359 | -81.67005 | 23922 ft | 409 kts | 139° |
| 2026-05-04 15:24 | 26.60209 | -81.61230 | 22737 ft | 412 kts | 131° |
| 2026-05-04 15:25 | 26.58484 | -81.58666 | 22145 ft | 413 kts | 131° |
| 2026-05-04 15:25 | 26.57316 | -81.56934 | 21758 ft | 415 kts | 131° |
| 2026-05-04 15:25 | 26.55573 | -81.54356 | 21164 ft | 416 kts | 131° |
| 2026-05-04 15:26 | 26.52081 | -81.49182 | 20062 ft | 418 kts | 131° |
| 2026-05-04 15:26 | 26.50332 | -81.46589 | 19526 ft | 418 kts | 131° |
| 2026-05-04 15:26 | 26.46837 | -81.41402 | 18470 ft | 418 kts | 131° |
| 2026-05-04 15:27 | 26.45090 | -81.38809 | 17894 ft | 417 kts | 131° |
| 2026-05-04 15:27 | 26.41613 | -81.33651 | 16736 ft | 414 kts | 130° |
| 2026-05-04 15:28 | 26.38051 | -81.28650 | 15601 ft | 408 kts | 133° |
| 2026-05-04 15:28 | 26.36226 | -81.26239 | 15058 ft | 406 kts | 134° |
| 2026-05-04 15:28 | 26.32579 | -81.21496 | 13996 ft | 400 kts | 134° |
| 2026-05-04 15:29 | 26.30782 | -81.19138 | 13411 ft | 398 kts | 134° |
| 2026-05-04 15:30 | 26.23764 | -81.09831 | 11110 ft | 386 kts | 133° |
| 2026-05-04 15:30 | 26.18650 | -81.03116 | 9448 ft | 375 kts | 132° |
| 2026-05-04 15:31 | 26.15396 | -80.98643 | 8294 ft | 370 kts | 122° |
| 2026-05-04 15:31 | 26.14402 | -80.96019 | 7740 ft | 368 kts | 104° |
| 2026-05-04 15:32 | 26.13122 | -80.88252 | 7271 ft | 316 kts | 101° |
| 2026-05-04 15:32 | 26.12337 | -80.83607 | 7029 ft | 296 kts | 101° |
| 2026-05-04 15:33 | 26.11603 | -80.79248 | 6787 ft | 278 kts | 101° |
| 2026-05-04 15:34 | 26.10585 | -80.73189 | 6432 ft | 258 kts | 101° |
| 2026-05-04 15:34 | 26.10255 | -80.71226 | 6287 ft | 258 kts | 100° |
| 2026-05-04 15:34 | 26.09601 | -80.67329 | 5989 ft | 255 kts | 100° |
| 2026-05-04 15:35 | 26.08952 | -80.63492 | 5694 ft | 251 kts | 100° |
| 2026-05-04 15:35 | 26.08628 | -80.61585 | 5535 ft | 252 kts | 99° |
| 2026-05-04 15:35 | 26.08305 | -80.59674 | 5396 ft | 250 kts | 100° |
| 2026-05-04 15:36 | 26.07665 | -80.55909 | 5100 ft | 246 kts | 99° |
| 2026-05-04 15:36 | 26.07350 | -80.54043 | 4951 ft | 245 kts | 99° |
| 2026-05-04 15:36 | 26.07002 | -80.52188 | 4812 ft | 248 kts | 101° |
| 2026-05-04 15:37 | 26.06758 | -80.50295 | 4663 ft | 243 kts | 91° |
| 2026-05-04 15:37 | 26.06723 | -80.48452 | 4506 ft | 235 kts | 88° |
| 2026-05-04 15:37 | 26.06726 | -80.46645 | 4357 ft | 233 kts | 88° |
| 2026-05-04 15:37 | 26.06724 | -80.44847 | 4209 ft | 232 kts | 88° |
| 2026-05-04 15:38 | 26.06718 | -80.43059 | 4088 ft | 231 kts | 88° |
| 2026-05-04 15:38 | 26.06711 | -80.41273 | 4001 ft | 230 kts | 88° |
| 2026-05-04 15:38 | 26.06704 | -80.39514 | 3948 ft | 231 kts | 87° |
| 2026-05-04 15:38 | 26.06696 | -80.37741 | 3720 ft | 228 kts | 86° |
| 2026-05-04 15:39 | 26.06688 | -80.35957 | 3443 ft | 227 kts | 87° |
| 2026-05-04 15:39 | 26.06681 | -80.34229 | 3161 ft | 226 kts | 87° |
| 2026-05-04 15:39 | 26.06665 | -80.30712 | 2569 ft | 225 kts | 86° |
| 2026-05-04 15:40 | 26.06657 | -80.28994 | 2279 ft | 225 kts | 86° |
| 2026-05-04 15:40 | 26.06649 | -80.27244 | 1980 ft | 226 kts | 87° |
| 2026-05-04 15:40 | 26.06639 | -80.25539 | 1706 ft | 213 kts | 87° |
| 2026-05-04 15:40 | 26.06630 | -80.23949 | 1424 ft | 197 kts | 86° |
| 2026-05-04 15:41 | 26.06622 | -80.22484 | 1163 ft | 179 kts | 87° |
| 2026-05-04 15:41 | 26.06614 | -80.21221 | 960 ft | 152 kts | 85° |
| 2026-05-04 15:41 | 26.06609 | -80.20081 | 779 ft | 144 kts | 87° |
| 2026-05-04 15:41 | 26.06604 | -80.18980 | 596 ft | 141 kts | 86° |
| 2026-05-04 15:42 | 26.06600 | -80.17894 | 430 ft | 139 kts | 85° |
| 2026-05-04 15:42 | 26.06596 | -80.16837 | 217 ft | 134 kts | 84° |
| 2026-05-04 15:42 | 26.06591 | -80.15806 | 36 ft | 134 kts | 86° |
| 2026-05-04 15:42 | 26.06588 | -80.14890 | 20 ft | 97 kts | 90° |
| 2026-05-04 15:43 | 26.06584 | -80.14331 | 52 ft | 47 kts | 91° |
| 2026-05-04 15:43 | 26.06582 | -80.14060 | 72 ft | 28 kts | 91° |
| 2026-05-04 15:43 | 26.06586 | -80.13856 | 67 ft | 21 kts | 74° |
| 2026-05-04 15:43 | 26.06655 | -80.13745 | 72 ft | 17 kts | 45° |
| 2026-05-04 15:44 | 26.06737 | -80.13744 | 72 ft | 15 kts | 296° |
| 2026-05-04 15:44 | 26.06744 | -80.13847 | 70 ft | 10 kts | 270° |
| 2026-05-04 15:44 | 26.06744 | -80.13934 | 69 ft | 12 kts | 269° |
| 2026-05-04 15:44 | 26.06721 | -80.14033 | 70 ft | 15 kts | 243° |
| 2026-05-04 15:45 | 26.06687 | -80.14125 | 64 ft | 16 kts | 255° |
| 2026-05-04 15:45 | 26.06679 | -80.14301 | 49 ft | 26 kts | 269° |
| 2026-05-04 15:45 | 26.06677 | -80.14469 | 44 ft | 13 kts | 268° |
| 2026-05-04 15:45 | 26.06676 | -80.14585 | 40 ft | 18 kts | 270° |
| 2026-05-04 15:46 | 26.06674 | -80.14745 | 27 ft | 19 kts | 269° |
| 2026-05-04 15:46 | 26.06685 | -80.14867 | 19 ft | 13 kts | 285° |
| 2026-05-04 15:46 | 26.06756 | -80.14911 | 16 ft | 16 kts | 35° |
| 2026-05-04 15:46 | 26.06767 | -80.14785 | 15 ft | 18 kts | 91° |
| 2026-05-04 15:47 | 26.06765 | -80.14656 | 15 ft | 13 kts | 90° |
| 2026-05-04 15:47 | 26.06798 | -80.14580 | 15 ft | 11 kts | 39° |
| 2026-05-04 15:47 | 26.06819 | -80.14491 | 16 ft | 13 kts | 89° |
| 2026-05-04 15:47 | 26.06842 | -80.14431 | 17 ft | 8 kts | 13° |
| 2026-05-04 15:48 | 26.06887 | -80.14431 | 16 ft | 2 kts | 359° |
| 2026-05-04 15:48 | 26.06888 | -80.14431 | 16 ft | 0 kts | 359° |